KGON/GON METAR and TAF weather

Enter ICAO airport designator
Station Type Date Time Source
KGON METAR 2020/10/29 15:56 UTC NOAA

KGON 291556Z 06006KT 4SM RA BR OVC050 09/07 A2987 RMK AO2 SLP114 P0010 T00890072


Station Type Date Time Source
KGON Decoded METAR 2020/10/29 15:56 UTC NOAA

GROTON/NEW LONDON AIRPORT , CT, United States (KGON) 41-20N 72-03W 3M
Oct 29, 2020 - 11:56 AM EDT / 2020.10.29 1556 UTC
Wind: from the ENE (060 degrees) at 7 MPH (6 KT):0
Visibility: 4 mile(s):0
Sky conditions: overcast
Weather: rain; mist
Precipitation last hour: 0.10 inches
Temperature: 48.0 F (8.9 C)
Dew Point: 45.0 F (7.2 C)
Relative Humidity: 89%
Pressure (altimeter): 29.87 in. Hg (1011 hPa)
ob: KGON 291556Z 06006KT 4SM RA BR OVC050 09/07 A2987 RMK AO2 SLP114 P0010 T00890072
cycle: 16

Station Type Date Time Source
KGON TAF 2020/10/29 15:36 UTC NOAA

TAF
AMD KGON 291433Z 2915/3012 06007KT 4SM -RA BR SCT020 BKN030 OVC090
TEMPO 2915/2918 2SM RA BR BKN009 OVC015
FM291800 06010KT 2SM RA BR BKN006 OVC010
FM292100 05014G21KT 2SM RA BR BKN006 OVC010
FM300000 04022G27KT 3SM RA BR BKN008 OVC012
FM300400 01016G24KT 3SM -RA BR SCT008 OVC012
FM301000 01020G27KT 3SM -RA BR SCT008 OVC012

Example: see airport list